createdAt,value
2018-08-03T00:00:04.976Z,19.87
2018-08-03T00:02:33.534Z,19.67
2018-08-03T00:05:02.098Z,20.07
2018-08-03T00:07:30.706Z,19.13
2018-08-03T00:09:59.282Z,18.20
2018-08-03T00:12:28.947Z,19.20
2018-08-03T00:14:57.632Z,17.97
2018-08-03T00:17:26.219Z,21.20
2018-08-03T00:19:54.869Z,21.27
2018-08-03T00:22:23.438Z,20.83
2018-08-03T00:24:52.057Z,18.23
2018-08-03T00:27:20.638Z,19.33
2018-08-03T00:29:49.202Z,20.10
2018-08-03T00:32:17.830Z,18.80
2018-08-03T00:34:46.384Z,19.70
2018-08-03T00:37:14.890Z,20.47
2018-08-03T00:39:43.492Z,19.00
2018-08-03T00:42:12.075Z,20.53
2018-08-03T00:44:40.613Z,18.90
2018-08-03T00:47:09.190Z,18.10
2018-08-03T00:49:37.738Z,19.10
2018-08-03T00:52:06.295Z,19.17
2018-08-03T00:54:34.868Z,17.80
2018-08-03T00:57:03.420Z,19.47
2018-08-03T00:59:32.025Z,19.63
2018-08-03T01:02:00.559Z,20.30
2018-08-03T01:04:29.098Z,19.20
2018-08-03T01:06:57.680Z,19.63
2018-08-03T01:09:26.219Z,20.30
2018-08-03T01:11:54.779Z,21.90
2018-08-03T01:14:23.348Z,19.80
2018-08-03T01:16:51.901Z,21.33
2018-08-03T01:19:20.482Z,21.57
2018-08-03T01:21:49.022Z,22.10
2018-08-03T01:24:17.587Z,19.50
2018-08-03T01:26:46.160Z,20.07
2018-08-03T01:29:14.701Z,19.73
2018-08-03T01:31:43.263Z,20.97
2018-08-03T01:34:11.836Z,19.57
2018-08-03T01:36:40.383Z,20.13
2018-08-03T01:39:08.778Z,20.50
2018-08-03T01:41:37.324Z,19.43
2018-08-03T01:44:05.890Z,21.37
2018-08-03T01:46:34.437Z,20.23
2018-08-03T01:49:03.293Z,20.10
2018-08-03T01:51:31.863Z,19.70
2018-08-03T01:54:00.415Z,20.60
2018-08-03T01:56:28.998Z,21.10
2018-08-03T01:58:57.629Z,19.83
2018-08-03T02:01:26.115Z,20.50
2018-08-03T02:03:54.715Z,20.67
2018-08-03T02:06:23.338Z,19.40
2018-08-03T02:08:51.897Z,20.43
2018-08-03T02:11:20.459Z,20.70
2018-08-03T02:13:48.661Z,21.13
2018-08-03T02:16:17.279Z,20.80
2018-08-03T02:18:45.814Z,23.20
2018-08-03T02:21:14.370Z,22.17
2018-08-03T02:23:42.895Z,20.60
2018-08-03T02:26:11.486Z,22.67
2018-08-03T02:28:40.110Z,21.93
2018-08-03T02:31:08.716Z,21.10
2018-08-03T02:33:37.295Z,21.30
2018-08-03T02:36:05.838Z,20.50
2018-08-03T02:38:34.420Z,19.23
2018-08-03T02:41:02.971Z,19.07
2018-08-03T02:43:31.518Z,21.90
2018-08-03T02:45:59.717Z,21.27
2018-08-03T02:48:28.359Z,21.70
2018-08-03T02:50:56.914Z,22.27
2018-08-03T02:53:25.459Z,23.27
2018-08-03T02:55:54.031Z,21.93
2018-08-03T02:58:22.607Z,22.40
2018-08-03T03:00:51.132Z,21.37
2018-08-03T03:03:19.674Z,21.70
2018-08-03T03:05:48.201Z,20.57
2018-08-03T03:08:16.751Z,22.40
2018-08-03T03:10:45.314Z,20.67
2018-08-03T03:13:13.863Z,20.47
2018-08-03T03:15:42.483Z,20.60
2018-08-03T03:18:11.070Z,21.33
2018-08-03T03:20:39.639Z,21.23
2018-08-03T03:23:08.167Z,21.13
2018-08-03T03:25:36.772Z,20.90
2018-08-03T03:28:05.360Z,20.00
2018-08-03T03:30:34.190Z,20.20
2018-08-03T03:33:02.703Z,21.43
2018-08-03T03:35:31.251Z,20.93
2018-08-03T03:37:59.796Z,21.83
2018-08-03T03:40:28.382Z,21.03
2018-08-03T03:42:56.951Z,22.20
2018-08-03T03:45:25.546Z,22.20
2018-08-03T03:47:54.795Z,21.80
2018-08-03T03:50:23.382Z,21.90
2018-08-03T03:52:52.038Z,21.80
2018-08-03T03:55:20.646Z,21.73
2018-08-03T03:57:49.231Z,20.07
2018-08-03T04:00:17.814Z,20.87
2018-08-03T04:02:46.442Z,20.47
2018-08-03T04:05:15.007Z,21.50
2018-08-03T04:07:43.814Z,23.03
2018-08-03T04:10:12.334Z,21.87
2018-08-03T04:12:41.174Z,21.80
2018-08-03T04:15:09.942Z,22.93
2018-08-03T04:17:38.494Z,22.07
2018-08-03T04:20:07.382Z,21.07
2018-08-03T04:22:36.083Z,20.20
2018-08-03T04:25:04.800Z,20.37
2018-08-03T04:27:33.709Z,20.40
2018-08-03T04:30:02.334Z,20.40
2018-08-03T04:32:30.891Z,20.90
2018-08-03T04:34:59.542Z,20.33
2018-08-03T04:37:28.110Z,20.20
2018-08-03T04:39:56.671Z,20.40
2018-08-03T04:42:25.645Z,20.90
2018-08-03T04:44:54.279Z,22.37
2018-08-03T04:47:22.833Z,21.30
2018-08-03T04:49:51.405Z,21.27
2018-08-03T04:52:19.992Z,19.53
2018-08-03T04:54:48.598Z,21.00
2018-08-03T04:57:17.126Z,19.97
2018-08-03T04:59:45.688Z,20.10
2018-08-03T05:02:14.267Z,19.20
2018-08-03T05:04:42.884Z,18.80
2018-08-03T05:07:11.415Z,19.67
2018-08-03T05:09:39.918Z,18.37
2018-08-03T05:12:08.966Z,19.20
2018-08-03T05:14:37.478Z,19.10
2018-08-03T05:17:06.023Z,17.97
2018-08-03T05:19:34.559Z,18.80
2018-08-03T05:22:03.105Z,17.60
2018-08-03T05:24:31.665Z,17.60
2018-08-03T05:27:00.210Z,17.60
2018-08-03T05:29:28.954Z,16.27
2018-08-03T05:31:57.471Z,18.63
2018-08-03T05:34:26.048Z,17.27
2018-08-03T05:36:54.590Z,18.20
2018-08-03T05:39:23.152Z,18.90
2018-08-03T05:41:51.682Z,18.93
2018-08-03T05:44:19.908Z,19.07
2018-08-03T05:46:48.461Z,16.93
2018-08-03T05:49:17.096Z,16.30
2018-08-03T05:51:45.738Z,16.33
2018-08-03T05:54:14.374Z,18.27
2018-08-03T05:56:42.967Z,17.67
2018-08-03T05:59:11.642Z,16.50
2018-08-03T06:01:40.186Z,16.83
2018-08-03T06:04:08.782Z,17.23
2018-08-03T06:06:37.367Z,17.20
2018-08-03T06:09:08.716Z,15.83
2018-08-03T06:11:37.448Z,17.23
2018-08-03T06:14:06.620Z,16.07
2018-08-03T06:16:35.370Z,17.60
2018-08-03T06:19:04.059Z,17.30
2018-08-03T06:21:32.676Z,17.87
2018-08-03T06:24:01.224Z,18.03
2018-08-03T06:26:29.798Z,18.10
2018-08-03T06:28:58.358Z,18.33
2018-08-03T06:31:26.906Z,18.73
2018-08-03T06:33:55.472Z,17.97
2018-08-03T06:36:24.028Z,17.47
2018-08-03T06:38:52.771Z,17.57
2018-08-03T06:41:21.416Z,17.90
2018-08-03T06:43:50.018Z,18.40
2018-08-03T06:46:19.442Z,18.30
2018-08-03T06:48:48.027Z,18.73
2018-08-03T06:51:16.580Z,18.30
2018-08-03T06:53:45.460Z,18.37
2018-08-03T06:56:13.913Z,18.87
2018-08-03T06:58:42.470Z,18.97
2018-08-03T07:01:11.007Z,19.50
2018-08-03T07:03:39.606Z,18.27
2018-08-03T07:06:08.149Z,19.30
2018-08-03T07:08:36.727Z,17.93
2018-08-03T07:11:04.954Z,19.30
2018-08-03T07:13:33.482Z,16.83
2018-08-03T07:16:02.066Z,17.60
2018-08-03T07:18:30.621Z,18.77
2018-08-03T07:20:59.211Z,17.80
2018-08-03T07:23:27.781Z,16.67
2018-08-03T07:25:56.370Z,17.27
2018-08-03T07:28:24.906Z,16.77
2018-08-03T07:30:53.470Z,16.17
2018-08-03T07:33:22.053Z,16.40
2018-08-03T07:35:50.237Z,15.73
2018-08-03T07:38:18.851Z,15.20
2018-08-03T07:40:47.414Z,17.37
2018-08-03T07:43:16.068Z,15.17
2018-08-03T07:45:44.605Z,15.00
2018-08-03T07:48:13.173Z,15.27
2018-08-03T07:50:41.812Z,16.27
2018-08-03T07:53:10.379Z,15.93
2018-08-03T07:55:38.950Z,15.37
2018-08-03T07:58:07.461Z,17.10
2018-08-03T08:00:37.181Z,16.87
2018-08-03T08:03:05.805Z,16.47
2018-08-03T08:05:34.375Z,14.90
2018-08-03T08:08:02.924Z,15.00
2018-08-03T08:10:31.506Z,15.37
2018-08-03T08:13:00.057Z,17.50
2018-08-03T08:15:28.684Z,15.00
2018-08-03T08:17:57.275Z,15.33
2018-08-03T08:20:25.855Z,15.80
2018-08-03T08:22:54.082Z,15.97
2018-08-03T08:25:22.656Z,14.70
2018-08-03T08:27:51.416Z,15.47
2018-08-03T08:30:20.003Z,14.57
2018-08-03T08:32:48.575Z,14.43
2018-08-03T08:35:17.153Z,16.60
2018-08-03T08:37:45.774Z,14.20
2018-08-03T08:40:14.674Z,15.67
2018-08-03T08:42:43.282Z,14.50
2018-08-03T08:45:11.878Z,14.17
2018-08-03T08:47:40.454Z,15.27
2018-08-03T08:50:09.591Z,14.20
2018-08-03T08:52:38.167Z,14.37
2018-08-03T08:55:06.702Z,14.83
2018-08-03T08:57:35.267Z,14.03
2018-08-03T09:00:03.956Z,15.10
2018-08-03T09:02:32.469Z,15.00
2018-08-03T09:05:01.050Z,15.40
2018-08-03T09:07:29.604Z,15.07
2018-08-03T09:09:58.479Z,15.80
2018-08-03T09:12:27.103Z,15.70
2018-08-03T09:14:55.672Z,15.90
2018-08-03T09:17:24.206Z,15.77
2018-08-03T09:19:53.478Z,15.47
2018-08-03T09:22:22.071Z,15.37
2018-08-03T09:24:50.692Z,15.70
2018-08-03T09:27:19.303Z,16.10
2018-08-03T09:29:47.891Z,16.00
2018-08-03T09:32:16.510Z,15.67
2018-08-03T09:34:45.133Z,16.67
2018-08-03T09:37:13.707Z,15.77
2018-08-03T09:39:42.338Z,16.40
2018-08-03T09:42:10.934Z,15.33
2018-08-03T09:44:39.551Z,16.40
2018-08-03T09:47:08.122Z,17.10
2018-08-03T09:49:36.690Z,17.80
2018-08-03T09:52:05.305Z,17.07
2018-08-03T09:54:33.887Z,16.17
2018-08-03T09:57:02.411Z,17.10
2018-08-03T09:59:31.132Z,15.60
2018-08-03T10:01:59.699Z,17.40
2018-08-03T10:04:28.235Z,16.07
2018-08-03T10:06:56.756Z,16.97
2018-08-03T10:09:25.295Z,16.13
2018-08-03T10:11:53.862Z,16.40
2018-08-03T10:14:22.402Z,16.00
2018-08-03T10:16:50.917Z,14.93
2018-08-03T10:19:19.687Z,16.13
2018-08-03T10:21:48.259Z,15.23
2018-08-03T10:24:16.827Z,15.10
2018-08-03T10:26:45.399Z,14.83
2018-08-03T10:29:13.925Z,14.13
2018-08-03T10:31:42.504Z,15.53
2018-08-03T10:34:11.395Z,15.90
2018-08-03T10:36:39.927Z,13.73
2018-08-03T10:39:09.849Z,15.50
2018-08-03T10:41:39.255Z,15.27
2018-08-03T10:44:08.314Z,14.17
2018-08-03T10:46:36.959Z,14.77
2018-08-03T10:49:05.664Z,14.90
2018-08-03T10:51:34.255Z,14.13
2018-08-03T10:54:02.858Z,13.57
2018-08-03T10:56:31.421Z,13.90
2018-08-03T10:59:00.075Z,13.77
2018-08-03T11:01:28.829Z,14.07
2018-08-03T11:03:57.243Z,14.03
2018-08-03T11:06:25.755Z,13.43
2018-08-03T11:08:54.388Z,13.77
2018-08-03T11:11:22.921Z,12.87
2018-08-03T11:13:51.142Z,13.83
2018-08-03T11:16:19.724Z,13.57
2018-08-03T11:18:48.293Z,13.77
2018-08-03T11:21:16.911Z,13.60
2018-08-03T11:23:45.445Z,13.70
2018-08-03T11:26:14.072Z,13.13
2018-08-03T11:28:42.687Z,13.17
2018-08-03T11:31:11.265Z,13.53
2018-08-03T11:33:39.864Z,13.87
2018-08-03T11:36:08.405Z,13.10
2018-08-03T11:38:36.979Z,12.17
2018-08-03T11:41:05.608Z,12.83
2018-08-03T11:43:34.382Z,14.30
2018-08-03T11:46:02.939Z,12.43
2018-08-03T11:48:31.580Z,13.03
2018-08-03T11:51:00.127Z,13.00
2018-08-03T11:53:28.668Z,13.90
2018-08-03T11:55:57.237Z,14.07
2018-08-03T11:58:25.797Z,12.90
2018-08-03T12:00:54.531Z,12.77
2018-08-03T12:03:22.976Z,16.10
2018-08-03T12:05:51.558Z,13.70
2018-08-03T12:08:19.778Z,13.80
2018-08-03T12:10:48.342Z,13.60
2018-08-03T12:13:16.893Z,13.33
2018-08-03T12:15:45.434Z,12.33
2018-08-03T12:18:14.777Z,13.10
2018-08-03T12:20:44.949Z,13.33
2018-08-03T12:23:13.749Z,13.93
2018-08-03T12:25:42.381Z,14.03
2018-08-03T12:28:11.926Z,13.27
2018-08-03T12:30:40.511Z,13.27
2018-08-03T12:33:09.354Z,12.67
2018-08-03T12:35:37.909Z,13.10
2018-08-03T12:38:06.600Z,12.70
2018-08-03T12:40:35.199Z,12.67
2018-08-03T12:43:03.835Z,12.37
2018-08-03T12:45:34.146Z,12.90
2018-08-03T12:48:01.048Z,13.17
2018-08-03T12:50:29.667Z,13.57
2018-08-03T12:52:58.372Z,12.30
2018-08-03T12:55:26.899Z,13.00
2018-08-03T12:57:55.483Z,13.20
2018-08-03T13:00:24.789Z,12.60
2018-08-03T13:02:53.379Z,13.30
2018-08-03T13:05:21.973Z,13.23
2018-08-03T13:07:50.770Z,12.90
2018-08-03T13:10:19.244Z,12.37
2018-08-03T13:12:47.781Z,13.70
2018-08-03T13:15:16.366Z,12.57
2018-08-03T13:17:44.942Z,12.10
2018-08-03T13:20:13.528Z,13.00
2018-08-03T13:22:42.124Z,11.80
2018-08-03T13:25:10.707Z,12.20
2018-08-03T13:27:39.281Z,12.20
2018-08-03T13:30:07.895Z,12.10
2018-08-03T13:32:36.478Z,11.40
2018-08-03T13:35:05.548Z,11.43
2018-08-03T13:37:34.089Z,11.23
2018-08-03T13:40:02.704Z,12.40
2018-08-03T13:42:31.278Z,12.00
2018-08-03T13:44:59.906Z,11.03
2018-08-03T13:47:28.455Z,12.07
2018-08-03T13:49:56.998Z,12.60
2018-08-03T13:52:25.588Z,11.53
2018-08-03T13:54:54.117Z,12.10
2018-08-03T13:57:23.064Z,10.73
2018-08-03T13:59:51.684Z,11.20
2018-08-03T14:02:24.912Z,11.90
2018-08-03T14:04:54.040Z,12.10
2018-08-03T14:07:22.965Z,11.80
2018-08-03T14:09:51.623Z,11.73
2018-08-03T14:12:20.233Z,11.23
2018-08-03T14:14:48.825Z,12.33
2018-08-03T14:17:17.393Z,12.50
2018-08-03T14:19:47.431Z,11.80
2018-08-03T14:22:16.065Z,12.97
2018-08-03T14:24:44.631Z,13.13
2018-08-03T14:27:13.231Z,11.70
2018-08-03T14:29:41.801Z,11.87
2018-08-03T14:32:10.452Z,12.00
2018-08-03T14:34:38.977Z,11.60
2018-08-03T14:37:07.580Z,11.30
2018-08-03T14:39:36.339Z,11.30
2018-08-03T14:42:05.014Z,12.47
2018-08-03T14:44:33.604Z,12.63
2018-08-03T14:47:02.158Z,11.43
2018-08-03T14:49:30.725Z,10.67
2018-08-03T14:51:59.295Z,11.57
2018-08-03T14:54:27.927Z,11.30
2018-08-03T14:56:56.468Z,11.20
2018-08-03T14:59:25.226Z,11.00
2018-08-03T15:01:53.799Z,11.97
2018-08-03T15:04:22.337Z,11.03
2018-08-03T15:06:50.951Z,11.23
2018-08-03T15:09:19.540Z,12.00
2018-08-03T15:11:48.135Z,12.50
2018-08-03T15:14:16.708Z,11.80
2018-08-03T15:16:45.327Z,11.73
2018-08-03T15:19:14.150Z,11.27
2018-08-03T15:21:42.722Z,12.23
2018-08-03T15:24:11.279Z,11.73
2018-08-03T15:26:39.856Z,12.47
2018-08-03T15:29:08.449Z,12.70
2018-08-03T15:31:37.015Z,11.60
2018-08-03T15:34:05.597Z,11.37
2018-08-03T15:36:34.152Z,11.80
2018-08-03T15:39:02.806Z,11.53
2018-08-03T15:41:31.351Z,11.70
2018-08-03T15:43:59.926Z,11.73
2018-08-03T15:46:28.438Z,12.03
2018-08-03T15:48:57.115Z,12.00
2018-08-03T15:51:25.698Z,12.00
2018-08-03T15:53:54.400Z,11.87
2018-08-03T15:56:22.965Z,13.17
2018-08-03T15:58:51.697Z,11.50
2018-08-03T16:01:20.224Z,12.60
2018-08-03T16:03:49.076Z,12.50
2018-08-03T16:06:18.035Z,13.47
2018-08-03T16:08:46.576Z,12.50
2018-08-03T16:11:15.150Z,13.50
2018-08-03T16:13:43.744Z,12.07
2018-08-03T16:16:12.324Z,12.00
2018-08-03T16:18:40.861Z,11.67
2018-08-03T16:21:09.463Z,12.47
2018-08-03T16:23:37.999Z,11.83
2018-08-03T16:26:06.868Z,11.90
2018-08-03T16:28:35.498Z,12.17
2018-08-03T16:31:04.998Z,11.57
2018-08-03T16:33:34.319Z,13.27
2018-08-03T16:36:02.906Z,11.70
2018-08-03T16:38:31.478Z,11.80
2018-08-03T16:41:00.087Z,12.10
2018-08-03T16:43:28.656Z,11.50
2018-08-03T16:45:57.226Z,12.17
2018-08-03T16:48:25.825Z,12.00
2018-08-03T16:50:54.463Z,11.60
2018-08-03T16:53:23.107Z,11.60
2018-08-03T16:55:51.638Z,11.20
2018-08-03T16:58:20.218Z,12.27
2018-08-03T17:00:48.795Z,12.20
2018-08-03T17:03:17.347Z,11.13
2018-08-03T17:05:45.971Z,10.40
2018-08-03T17:08:14.571Z,10.70
2018-08-03T17:10:43.523Z,11.70
2018-08-03T17:13:12.141Z,12.63
2018-08-03T17:15:40.688Z,11.20
2018-08-03T17:18:09.286Z,11.03
2018-08-03T17:20:37.843Z,11.00
2018-08-03T17:23:06.482Z,11.70
2018-08-03T17:25:35.081Z,11.63
2018-08-03T17:28:03.721Z,11.57
2018-08-03T17:30:32.343Z,11.10
2018-08-03T17:33:00.933Z,11.60
2018-08-03T17:35:29.490Z,10.53
2018-08-03T17:37:58.092Z,11.53
2018-08-03T17:40:26.627Z,11.73
2018-08-03T17:42:55.154Z,11.40
2018-08-03T17:45:23.790Z,11.30
2018-08-03T17:47:52.419Z,11.67
2018-08-03T17:50:21.006Z,11.07
2018-08-03T17:52:49.511Z,11.20
2018-08-03T17:55:18.058Z,11.23
2018-08-03T17:57:46.616Z,11.83
2018-08-03T18:00:15.215Z,12.47
2018-08-03T18:02:43.872Z,13.13
2018-08-03T18:05:15.721Z,13.20
2018-08-03T18:07:44.346Z,13.77
2018-08-03T18:10:12.917Z,13.53
2018-08-03T18:12:41.435Z,13.93
2018-08-03T18:15:10.197Z,12.60
2018-08-03T18:17:38.766Z,14.50
2018-08-03T18:20:08.719Z,13.33
2018-08-03T18:22:37.468Z,13.97
2018-08-03T18:25:06.142Z,13.33
2018-08-03T18:27:34.798Z,14.30
2018-08-03T18:30:03.439Z,13.23
2018-08-03T18:32:32.005Z,13.27
2018-08-03T18:35:00.603Z,13.30
2018-08-03T18:37:29.326Z,13.77
2018-08-03T18:39:59.597Z,13.20
2018-08-03T18:42:28.819Z,13.07
2018-08-03T18:44:57.693Z,12.60
2018-08-03T18:47:26.546Z,13.60
2018-08-03T18:49:55.598Z,13.77
2018-08-03T18:52:24.580Z,13.83
2018-08-03T18:54:55.375Z,14.77
2018-08-03T18:57:24.430Z,13.20
2018-08-03T18:59:53.070Z,11.90
2018-08-03T19:02:22.066Z,14.07
2018-08-03T19:04:50.593Z,13.00
2018-08-03T19:07:19.154Z,13.17
2018-08-03T19:09:51.559Z,13.90
2018-08-03T19:12:20.124Z,13.10
2018-08-03T19:14:50.855Z,13.03
2018-08-03T19:17:20.174Z,13.60
2018-08-03T19:19:50.052Z,13.30
2018-08-03T19:22:18.938Z,13.83
2018-08-03T19:24:47.576Z,13.37
2018-08-03T19:27:16.207Z,12.87
2018-08-03T19:29:45.771Z,12.93
2018-08-03T19:32:14.353Z,12.50
2018-08-03T19:34:43.894Z,12.40
2018-08-03T19:37:12.476Z,12.60
2018-08-03T19:39:41.234Z,14.00
2018-08-03T19:42:10.085Z,13.37
2018-08-03T19:44:38.636Z,14.00
2018-08-03T19:47:07.219Z,13.97
2018-08-03T19:49:36.627Z,14.57
2018-08-03T19:52:05.299Z,14.20
2018-08-03T19:54:33.862Z,14.13
2018-08-03T19:57:02.487Z,14.27
2018-08-03T19:59:32.040Z,13.20
2018-08-03T20:02:00.663Z,13.13
2018-08-03T20:04:29.194Z,13.03
2018-08-03T20:06:57.758Z,14.30
2018-08-03T20:09:31.095Z,13.10
2018-08-03T20:11:59.676Z,13.50
2018-08-03T20:14:28.716Z,13.33
2018-08-03T20:16:57.351Z,15.23
2018-08-03T20:19:26.569Z,14.63
2018-08-03T20:21:55.357Z,12.87
2018-08-03T20:24:23.998Z,13.40
2018-08-03T20:26:52.509Z,14.50
2018-08-03T20:29:21.462Z,13.77
2018-08-03T20:31:50.128Z,14.07
2018-08-03T20:34:18.645Z,14.30
2018-08-03T20:36:47.186Z,14.70
2018-08-03T20:39:17.165Z,14.77
2018-08-03T20:41:46.316Z,14.73
2018-08-03T20:44:15.508Z,15.40
2018-08-03T20:46:44.167Z,14.93
2018-08-03T20:49:12.803Z,14.17
2018-08-03T20:51:41.371Z,13.80
2018-08-03T20:54:10.154Z,12.27
2018-08-03T20:56:38.857Z,14.43
2018-08-03T20:59:07.407Z,14.77
2018-08-03T21:01:36.020Z,14.67
2018-08-03T21:04:04.628Z,15.10
2018-08-03T21:06:33.481Z,14.30
2018-08-03T21:09:02.083Z,14.87
2018-08-03T21:11:31.152Z,13.90
2018-08-03T21:14:00.614Z,13.90
2018-08-03T21:16:29.382Z,14.10
2018-08-03T21:18:57.962Z,14.00
2018-08-03T21:21:26.558Z,14.63
2018-08-03T21:23:55.425Z,14.23
2018-08-03T21:26:23.982Z,13.70
2018-08-03T21:28:52.768Z,13.87
2018-08-03T21:31:21.493Z,14.00
2018-08-03T21:33:50.800Z,14.20
2018-08-03T21:36:20.021Z,13.17
2018-08-03T21:38:48.513Z,14.40
2018-08-03T21:41:16.999Z,13.50
2018-08-03T21:43:45.520Z,14.77
2018-08-03T21:46:14.180Z,14.13
2018-08-03T21:48:42.769Z,14.63
2018-08-03T21:51:11.480Z,15.00
2018-08-03T21:53:40.322Z,14.60
2018-08-03T21:56:08.855Z,13.73
2018-08-03T21:58:37.356Z,14.20
2018-08-03T22:01:09.086Z,14.60
2018-08-03T22:03:44.615Z,14.30
2018-08-03T22:06:13.109Z,13.77
2018-08-03T22:08:41.766Z,14.20
2018-08-03T22:11:11.254Z,14.07
2018-08-03T22:13:40.169Z,14.53
2018-08-03T22:16:08.402Z,15.57
2018-08-03T22:18:37.430Z,14.70
2018-08-03T22:21:06.036Z,15.00
2018-08-03T22:23:34.528Z,13.80
2018-08-03T22:26:03.073Z,14.73
2018-08-03T22:28:31.591Z,15.43
2018-08-03T22:31:01.105Z,14.80
2018-08-03T22:33:29.342Z,15.10
2018-08-03T22:35:57.945Z,15.00
2018-08-03T22:38:26.496Z,13.50
2018-08-03T22:40:55.039Z,15.47
2018-08-03T22:43:23.565Z,14.77
2018-08-03T22:45:52.157Z,15.20
2018-08-03T22:48:20.715Z,14.17
2018-08-03T22:50:49.214Z,15.10
2018-08-03T22:53:17.717Z,15.40
2018-08-03T22:55:46.281Z,14.30
2018-08-03T22:58:14.806Z,14.33
2018-08-03T23:00:43.553Z,15.17
2018-08-03T23:03:12.105Z,14.17
2018-08-03T23:05:40.722Z,14.40
2018-08-03T23:08:09.348Z,14.90
2018-08-03T23:10:37.857Z,15.03
2018-08-03T23:13:06.501Z,15.40
2018-08-03T23:15:35.071Z,15.10
2018-08-03T23:18:03.624Z,14.67
2018-08-03T23:20:32.154Z,15.63
2018-08-03T23:23:00.771Z,15.47
2018-08-03T23:25:29.356Z,15.30
2018-08-03T23:27:58.071Z,15.50
2018-08-03T23:30:26.907Z,15.23
2018-08-03T23:32:55.496Z,15.83
2018-08-03T23:35:24.038Z,14.83
2018-08-03T23:37:52.667Z,15.13
2018-08-03T23:40:21.230Z,15.30
2018-08-03T23:42:49.790Z,14.30
2018-08-03T23:45:18.346Z,14.90
2018-08-03T23:47:46.918Z,15.63
2018-08-03T23:50:17.801Z,15.70
2018-08-03T23:52:47.945Z,14.90
2018-08-03T23:55:17.426Z,15.77
2018-08-03T23:57:46.446Z,14.83
